SV1IW Athens current weather conditions

sailwx.info

Wind from 002 at 2 knots gusting 5

Air temperature 25.6° C
Dewpoint 10.9° C

Last reported at 2016-Jun-28 23:30 UTC.
Time now 2016-Jun-29 05:44 UTC

Location: N 37°58' E 023°43'.
View on Google Maps.

See reports from other nearby stations

  
Tides and Currents Weather Stations Pressure Air Temp Water Temp Dewpoint Dewpoint Depression Visibility Wind Speed Wind Dir Waves Ship Positions
date/time (UTC)wind fromknots sea level pressurealtimeterstation pressurevisibilityair tempwater tempwave heightnotes
2016-Jun-28 23:30 002 2 gusting 5 25.6
2016-Jun-28 23:00 356 25.6
2016-Jun-28 22:30 008 25.6
2016-Jun-28 22:00 004 26.1
2016-Jun-28 21:30 353 26.1
2016-Jun-28 21:00 009 2 gusting 6 26.1
2016-Jun-28 20:30 341 26.1
2016-Jun-28 20:00 019 1 gusting 5 26.1
2016-Jun-28 19:30 016 1 gusting 6 26.1
2016-Jun-28 19:00 004 4 gusting 6 26.1
2016-Jun-28 18:30 355 2 gusting 6 26.1
2016-Jun-28 18:00 340 1 gusting 7 25.6
2016-Jun-28 17:30 006 5 gusting 11 25.0
2016-Jun-28 17:00 024 8 gusting 17 24.4
2016-Jun-28 16:30 252 5 gusting 8 30.0
2016-Jun-28 16:01 241 5 gusting 7 30.6
2016-Jun-28 15:30 245 5 gusting 12 31.7
2016-Jun-28 15:00 255 2 gusting 6 33.9
2016-Jun-28 14:30 064 4 gusting 12 33.9
2016-Jun-28 14:00 216 6 gusting 11 32.8
2016-Jun-28 13:30 229 6 gusting 13 32.8
2016-Jun-28 13:00 085 4 gusting 10 33.9
2016-Jun-28 12:30 216 4 gusting 10 33.3
2016-Jun-28 12:00 194 4 gusting 8 33.9
2016-Jun-28 11:30 088 5 gusting 10 32.8
2016-Jun-28 11:00 197 5 gusting 8 32.8
2016-Jun-27 22:30 220 2 gusting 6 28.9
2016-Jun-27 22:00 255 3 gusting 6 28.9
2016-Jun-27 21:30 235 2 gusting 5 28.9
2016-Jun-27 21:00 253 0 gusting 6 29.4
2016-Jun-27 20:30 245 2 gusting 6 29.4
2016-Jun-27 20:02 266 3 gusting 6 29.4
2016-Jun-27 19:30 212 2 gusting 6 29.4
2016-Jun-27 19:00 214 2 gusting 7 29.4
2016-Jun-27 18:30 294 4 gusting 7 30.0
2016-Jun-27 18:00 245 2 gusting 8 30.0
2016-Jun-27 17:30 194 4 gusting 10 30.0
2016-Jun-27 17:00 217 5 gusting 10 30.0
2016-Jun-27 16:00 201 7 gusting 13 30.6
2016-Jun-27 15:30 199 5 gusting 12 30.6
2016-Jun-27 14:30 188 5 gusting 11 31.1
2016-Jun-27 14:00 208 5 gusting 6 32.2